world map with EBM marked

EBM - Airport

This information may not be accurate or current and is not valid for navigation or flight planning. No warranty of fitness for any purpose is made or implied.

flag of Tunisia

Donate via PayPal

Additional information is available on the NEW Great Circle Mapper

Location
City:  El Borma, Tunisia
ICAO / IATA:DTTR / EBM

Details
Type:Airport (Aerodrome, Airfield)
Use:Public/Civil
Latitude:31°42'10"N (31.702778)
Longitude:9°15'27"E (9.257500)
Elevation:847 ft (258 m)
Runways:1
Longest:8858 × 148 ft (2700 × 45 m)

Time
Timezone:UTC+1 (DST+2)

Weather
METAR:DTTR  041400Z 29016KT 9999 FEW023 13/M03 Q1017
TAF:DTTR  (expired)

Related Locations
Nearby:
Farthest:NZJP: 11679 mi / 18796 km
Te Puia Springs [Hospital Heliport], GIS, NZ

Find:

   beyond  
but within

Other Information
Maps:
Sources:

  


 


Great Circle Mapper   Great Circle Mapper
Great Circle Mapper FAQ   Great Circle Mapper FAQ
  Karl's Home Page
KLSē   KLSē Home
   GC on Facebook
Airlines of the World   Airlines of the World
Donate via PayPal


Copyright © 2004-2019, Karl L. Swartz. All rights reserved.
All trademarks mentioned herein belong to their respective owners.

Please see credits for attribution and copyright information.

Karl Swartz <karl@kls2.com>
  Powered by FreeBSD
Valid HTML 4.01!
Labeled with ICRA
hCard Microformat
Geo Microformat